sensor_id;sensor_type;location;lat;lon;timestamp;pressure;altitude;pressure_sealevel;temperature;humidity
76201;BME280;64981;52.930;9.266;2023-01-01T00:01:19;100393.84;;;14.58;56.23
76201;BME280;64981;52.930;9.266;2023-01-01T00:03:48;100410.22;;;14.62;56.14
76201;BME280;64981;52.930;9.266;2023-01-01T00:06:14;100408.31;;;14.90;55.68
76201;BME280;64981;52.930;9.266;2023-01-01T00:08:39;100415.78;;;14.74;56.04
76201;BME280;64981;52.930;9.266;2023-01-01T00:11:07;100414.22;;;14.86;55.79
76201;BME280;64981;52.930;9.266;2023-01-01T00:13:35;100413.53;;;14.71;56.43
76201;BME280;64981;52.930;9.266;2023-01-01T00:16:16;100412.72;;;14.77;55.77
76201;BME280;64981;52.930;9.266;2023-01-01T00:18:41;100409.75;;;14.93;55.11
76201;BME280;64981;52.930;9.266;2023-01-01T00:21:11;100407.06;;;14.86;55.23
76201;BME280;64981;52.930;9.266;2023-01-01T00:23:38;100422.75;;;14.75;55.50
76201;BME280;64981;52.930;9.266;2023-01-01T00:26:13;100407.47;;;14.90;55.23
76201;BME280;64981;52.930;9.266;2023-01-01T00:28:39;100414.81;;;14.81;55.15
76201;BME280;64981;52.930;9.266;2023-01-01T00:31:06;100412.13;;;14.75;55.40
76201;BME280;64981;52.930;9.266;2023-01-01T00:33:32;100419.94;;;14.89;55.13
76201;BME280;64981;52.930;9.266;2023-01-01T00:36:06;100432.59;;;14.81;54.98
76201;BME280;64981;52.930;9.266;2023-01-01T00:38:32;100426.19;;;14.69;55.54
76201;BME280;64981;52.930;9.266;2023-01-01T00:40:58;100430.31;;;14.71;55.47
76201;BME280;64981;52.930;9.266;2023-01-01T00:43:23;100422.06;;;14.60;55.44
76201;BME280;64981;52.930;9.266;2023-01-01T00:45:49;100420.19;;;14.60;55.35
76201;BME280;64981;52.930;9.266;2023-01-01T00:48:18;100428.94;;;14.88;55.42
76201;BME280;64981;52.930;9.266;2023-01-01T00:50:46;100424.78;;;14.73;55.17
76201;BME280;64981;52.930;9.266;2023-01-01T00:53:12;100430.84;;;14.60;55.52
76201;BME280;64981;52.930;9.266;2023-01-01T00:55:39;100428.94;;;14.82;54.88
76201;BME280;64981;52.930;9.266;2023-01-01T00:58:05;100427.31;;;14.87;54.88
76201;BME280;64981;52.930;9.266;2023-01-01T01:00:31;100432.28;;;14.97;55.01
76201;BME280;64981;52.930;9.266;2023-01-01T01:02:57;100442.06;;;14.90;55.02
76201;BME280;64981;52.930;9.266;2023-01-01T01:05:23;100445.50;;;14.84;55.06
76201;BME280;64981;52.930;9.266;2023-01-01T01:07:48;100436.44;;;14.72;55.22
76201;BME280;64981;52.930;9.266;2023-01-01T01:10:14;100438.09;;;14.79;54.94
76201;BME280;64981;52.930;9.266;2023-01-01T01:12:40;100437.09;;;14.80;55.27
76201;BME280;64981;52.930;9.266;2023-01-01T01:15:07;100437.53;;;14.84;55.10
76201;BME280;64981;52.930;9.266;2023-01-01T01:17:34;100460.03;;;14.81;54.73
76201;BME280;64981;52.930;9.266;2023-01-01T01:20:00;100448.09;;;14.71;54.97
76201;BME280;64981;52.930;9.266;2023-01-01T01:22:26;100441.66;;;14.93;54.86
76201;BME280;64981;52.930;9.266;2023-01-01T01:24:51;100449.78;;;15.19;54.00
76201;BME280;64981;52.930;9.266;2023-01-01T01:27:17;100450.66;;;14.92;54.66
76201;BME280;64981;52.930;9.266;2023-01-01T01:29:42;100457.16;;;14.83;54.79
76201;BME280;64981;52.930;9.266;2023-01-01T01:32:10;100454.09;;;14.86;54.92
76201;BME280;64981;52.930;9.266;2023-01-01T01:34:36;100447.38;;;14.90;54.91
76201;BME280;64981;52.930;9.266;2023-01-01T01:37:02;100442.03;;;14.83;55.36
76201;BME280;64981;52.930;9.266;2023-01-01T01:39:28;100435.94;;;14.96;54.91
76201;BME280;64981;52.930;9.266;2023-01-01T01:41:54;100439.19;;;14.91;55.04
76201;BME280;64981;52.930;9.266;2023-01-01T01:44:49;100436.44;;;15.06;54.71
76201;BME280;64981;52.930;9.266;2023-01-01T01:47:25;100452.69;;;14.90;54.85
76201;BME280;64981;52.930;9.266;2023-01-01T01:50:00;100442.88;;;14.90;54.94
76201;BME280;64981;52.930;9.266;2023-01-01T01:52:28;100445.50;;;14.84;54.97
76201;BME280;64981;52.930;9.266;2023-01-01T01:54:56;100460.19;;;15.14;54.58
76201;BME280;64981;52.930;9.266;2023-01-01T01:57:23;100439.22;;;14.98;54.64
76201;BME280;64981;52.930;9.266;2023-01-01T01:59:54;100458.72;;;15.05;54.89
76201;BME280;64981;52.930;9.266;2023-01-01T02:02:31;100452.91;;;14.95;55.31
76201;BME280;64981;52.930;9.266;2023-01-01T02:04:59;100442.78;;;15.12;55.17
76201;BME280;64981;52.930;9.266;2023-01-01T02:07:27;100457.97;;;15.18;55.26
76201;BME280;64981;52.930;9.266;2023-01-01T02:09:54;100475.63;;;14.91;55.80
76201;BME280;64981;52.930;9.266;2023-01-01T02:12:20;100477.50;;;14.97;56.30
76201;BME280;64981;52.930;9.266;2023-01-01T02:14:46;100492.38;;;15.19;55.77
76201;BME280;64981;52.930;9.266;2023-01-01T02:17:22;100479.09;;;14.98;56.86
76201;BME280;64981;52.930;9.266;2023-01-01T02:20:11;100495.38;;;15.09;55.93
76201;BME280;64981;52.930;9.266;2023-01-01T02:26:13;100505.72;;;14.98;56.34
76201;BME280;64981;52.930;9.266;2023-01-01T02:29:01;100494.41;;;14.89;56.38
76201;BME280;64981;52.930;9.266;2023-01-01T02:31:33;100512.63;;;14.92;56.21
76201;BME280;64981;52.930;9.266;2023-01-01T02:34:06;100502.44;;;14.96;56.32
76201;BME280;64981;52.930;9.266;2023-01-01T02:36:40;100497.69;;;14.91;56.29
76201;BME280;64981;52.930;9.266;2023-01-01T02:39:09;100490.94;;;14.89;56.22
76201;BME280;64981;52.930;9.266;2023-01-01T02:41:40;100497.94;;;14.96;56.16
76201;BME280;64981;52.930;9.266;2023-01-01T02:44:10;100510.69;;;15.07;56.19
76201;BME280;64981;52.930;9.266;2023-01-01T02:46:35;100508.97;;;14.93;56.65
76201;BME280;64981;52.930;9.266;2023-01-01T02:49:02;100510.41;;;14.96;56.19
76201;BME280;64981;52.930;9.266;2023-01-01T02:51:44;100515.81;;;14.75;56.92
76201;BME280;64981;52.930;9.266;2023-01-01T02:54:37;100517.78;;;14.94;57.03
76201;BME280;64981;52.930;9.266;2023-01-01T02:57:25;100507.72;;;14.89;57.15
76201;BME280;64981;52.930;9.266;2023-01-01T03:00:06;100496.41;;;14.81;57.50
76201;BME280;64981;52.930;9.266;2023-01-01T03:06:04;100492.09;;;14.80;57.56
76201;BME280;64981;52.930;9.266;2023-01-01T03:09:01;100491.75;;;14.89;57.67
76201;BME280;64981;52.930;9.266;2023-01-01T03:14:54;100502.75;;;14.80;57.59
76201;BME280;64981;52.930;9.266;2023-01-01T03:20:08;100494.19;;;14.84;57.64
76201;BME280;64981;52.930;9.266;2023-01-01T03:22:38;100495.66;;;14.59;57.48
76201;BME280;64981;52.930;9.266;2023-01-01T03:25:12;100502.03;;;14.65;56.98
76201;BME280;64981;52.930;9.266;2023-01-01T03:27:46;100501.47;;;14.76;57.17
76201;BME280;64981;52.930;9.266;2023-01-01T03:30:16;100504.06;;;14.63;57.37
76201;BME280;64981;52.930;9.266;2023-01-01T03:32:52;100521.50;;;14.72;56.90
76201;BME280;64981;52.930;9.266;2023-01-01T03:35:52;100536.81;;;14.63;56.90
76201;BME280;64981;52.930;9.266;2023-01-01T03:38:39;100533.44;;;14.54;56.96
76201;BME280;64981;52.930;9.266;2023-01-01T03:41:14;100531.16;;;14.51;56.12
76201;BME280;64981;52.930;9.266;2023-01-01T03:44:06;100532.72;;;14.67;55.26
76201;BME280;64981;52.930;9.266;2023-01-01T03:46:35;100533.06;;;14.57;55.72
76201;BME280;64981;52.930;9.266;2023-01-01T03:49:04;100529.72;;;14.49;56.00
76201;BME280;64981;52.930;9.266;2023-01-01T04:00:42;100535.09;;;14.55;55.07
76201;BME280;64981;52.930;9.266;2023-01-01T04:03:21;100534.47;;;14.81;54.89
76201;BME280;64981;52.930;9.266;2023-01-01T04:05:47;100546.06;;;14.74;54.62
76201;BME280;64981;52.930;9.266;2023-01-01T04:08:15;100544.19;;;14.68;55.06
76201;BME280;64981;52.930;9.266;2023-01-01T04:10:46;100547.06;;;14.73;54.16
76201;BME280;64981;52.930;9.266;2023-01-01T04:13:13;100542.13;;;14.70;54.57
76201;BME280;64981;52.930;9.266;2023-01-01T04:15:40;100533.66;;;14.53;54.41
76201;BME280;64981;52.930;9.266;2023-01-01T04:18:05;100544.56;;;14.65;54.40
76201;BME280;64981;52.930;9.266;2023-01-01T04:20:31;100556.25;;;14.70;54.43
76201;BME280;64981;52.930;9.266;2023-01-01T04:23:04;100541.78;;;14.79;53.85
76201;BME280;64981;52.930;9.266;2023-01-01T04:25:30;100547.94;;;14.52;54.38
76201;BME280;64981;52.930;9.266;2023-01-01T04:27:56;100546.56;;;14.56;54.20
76201;BME280;64981;52.930;9.266;2023-01-01T04:30:24;100539.09;;;14.73;53.74
76201;BME280;64981;52.930;9.266;2023-01-01T04:32:49;100535.97;;;14.63;54.03
76201;BME280;64981;52.930;9.266;2023-01-01T04:35:15;100549.53;;;14.74;53.88
76201;BME280;64981;52.930;9.266;2023-01-01T04:37:42;100551.44;;;14.80;53.67
76201;BME280;64981;52.930;9.266;2023-01-01T04:40:10;100550.81;;;14.50;54.24
76201;BME280;64981;52.930;9.266;2023-01-01T04:42:37;100568.00;;;14.54;53.97
76201;BME280;64981;52.930;9.266;2023-01-01T04:45:03;100556.25;;;14.70;53.69
76201;BME280;64981;52.930;9.266;2023-01-01T04:47:29;100549.03;;;14.92;52.38
76201;BME280;64981;52.930;9.266;2023-01-01T04:49:54;100550.81;;;14.78;52.96
76201;BME280;64981;52.930;9.266;2023-01-01T04:52:20;100559.78;;;14.77;53.05
76201;BME280;64981;52.930;9.266;2023-01-01T04:54:46;100550.81;;;14.78;52.98
76201;BME280;64981;52.930;9.266;2023-01-01T04:57:12;100559.19;;;14.75;53.11
76201;BME280;64981;52.930;9.266;2023-01-01T04:59:43;100558.75;;;14.72;52.98
76201;BME280;64981;52.930;9.266;2023-01-01T05:02:08;100543.09;;;14.90;52.52
76201;BME280;64981;52.930;9.266;2023-01-01T05:04:34;100551.03;;;14.55;53.30
76201;BME280;64981;52.930;9.266;2023-01-01T05:06:59;100549.00;;;14.57;53.49
76201;BME280;64981;52.930;9.266;2023-01-01T05:09:25;100543.22;;;14.47;53.69
76201;BME280;64981;52.930;9.266;2023-01-01T05:11:53;100550.53;;;14.45;53.66
76201;BME280;64981;52.930;9.266;2023-01-01T05:14:20;100536.31;;;14.53;53.30
76201;BME280;64981;52.930;9.266;2023-01-01T05:16:45;100551.47;;;14.59;53.21
76201;BME280;64981;52.930;9.266;2023-01-01T05:19:11;100549.97;;;14.50;53.37
76201;BME280;64981;52.930;9.266;2023-01-01T05:21:38;100562.31;;;14.36;53.90
76201;BME280;64981;52.930;9.266;2023-01-01T05:24:08;100564.16;;;14.36;53.78
76201;BME280;64981;52.930;9.266;2023-01-01T05:26:37;100569.94;;;14.67;53.02
76201;BME280;64981;52.930;9.266;2023-01-01T05:29:04;100572.53;;;14.61;53.28
76201;BME280;64981;52.930;9.266;2023-01-01T05:31:33;100572.44;;;14.47;53.32
76201;BME280;64981;52.930;9.266;2023-01-01T05:34:00;100581.44;;;14.46;53.12
76201;BME280;64981;52.930;9.266;2023-01-01T05:36:29;100589.28;;;14.12;53.74
76201;BME280;64981;52.930;9.266;2023-01-01T05:38:56;100593.75;;;14.33;53.66
76201;BME280;64981;52.930;9.266;2023-01-01T05:41:22;100592.88;;;14.47;53.18
76201;BME280;64981;52.930;9.266;2023-01-01T05:43:50;100607.63;;;14.49;53.02
76201;BME280;64981;52.930;9.266;2023-01-01T05:46:18;100605.53;;;14.24;53.65
76201;BME280;64981;52.930;9.266;2023-01-01T05:48:45;100600.59;;;14.21;53.59
76201;BME280;64981;52.930;9.266;2023-01-01T05:51:14;100610.84;;;14.24;53.89
76201;BME280;64981;52.930;9.266;2023-01-01T05:53:41;100611.41;;;14.19;53.90
76201;BME280;64981;52.930;9.266;2023-01-01T05:56:10;100605.41;;;14.32;53.56
76201;BME280;64981;52.930;9.266;2023-01-01T05:58:36;100613.47;;;14.02;53.98
